Time;durP1;ratioP1;P1;durP2;ratioP2;P2;SDS_P1;SDS_P2;PMS_P1;PMS_P2;Temp;Humidity;BMP_temperature;BMP_pressure;BME280_temperature;BME280_humidity;BME280_pressure;Samples;Min_cycle;Max_cycle;Signal;HPM_P1;HPM_P2
2021/12/09 00:01:50;;;;;;;42.40;30.73;;;20.30;96.00;;;;;;4139913;28;20053;-69
2021/12/09 00:04:01;;;;;;;46.95;29.20;;;20.20;96.10;;;;;;4139971;28;20455;-69
2021/12/09 00:06:09;;;;;;;40.97;28.20;;;20.30;96.00;;;;;;4140193;28;20061;-69
2021/12/09 00:08:16;;;;;;;36.13;27.75;;;20.40;95.90;;;;;;4140065;28;20050;-69
2021/12/09 00:10:24;;;;;;;41.28;27.75;;;20.40;95.70;;;;;;4139886;28;20050;-69
2021/12/09 00:12:28;;;;;;;46.28;28.83;;;20.30;95.80;;;;;;4155950;28;20551;-69
2021/12/09 00:14:34;;;;;;;47.03;29.23;;;20.20;96.20;;;;;;4156740;28;20045;-69
2021/12/09 00:16:40;;;;;;;44.70;31.58;;;20.20;96.20;;;;;;4156255;28;20103;-69
2021/12/09 00:18:47;;;;;;;43.95;31.42;;;20.30;96.10;;;;;;4140048;28;20060;-69
2021/12/09 00:20:54;;;;;;;54.33;33.15;;;20.30;95.90;;;;;;4153118;28;20136;-69
2021/12/09 00:23:01;;;;;;;48.58;32.25;;;20.30;96.10;;;;;;4155959;28;20073;-69
2021/12/09 00:25:09;;;;;;;44.33;32.92;;;20.30;96.00;;;;;;4155924;28;20933;-69
2021/12/09 00:27:16;;;;;;;46.58;32.53;;;20.50;95.80;;;;;;4156318;28;20092;-69
2021/12/09 00:29:25;;;;;;;51.25;31.65;;;20.50;95.80;;;;;;4158193;28;20050;-69
2021/12/09 00:31:31;;;;;;;52.72;33.00;;;20.40;96.00;;;;;;4158421;28;20057;-69
2021/12/09 00:33:42;;;;;;;54.50;33.45;;;20.40;96.00;;;;;;4159307;28;20053;-69
2021/12/09 00:35:58;;;;;;;50.17;33.78;;;20.30;96.30;;;;;;4161665;28;20057;-69
2021/12/09 00:38:09;;;;;;;52.78;33.85;;;20.30;96.40;;;;;;4161362;28;20102;-69
2021/12/09 00:40:14;;;;;;;53.83;31.58;;;20.40;96.20;;;;;;4161561;28;20049;-69
2021/12/09 00:42:22;;;;;;;49.15;31.42;;;20.50;96.20;;;;;;4145659;28;20125;-69
2021/12/09 00:44:28;;;;;;;46.92;32.00;;;20.50;96.10;;;;;;4157459;28;20140;-69
2021/12/09 00:46:34;;;;;;;48.72;34.78;;;20.60;96.00;;;;;;4161511;28;20153;-69
2021/12/09 00:48:42;;;;;;;50.35;34.67;;;20.60;96.10;;;;;;4161828;28;20529;-68
2021/12/09 00:50:47;;;;;;;52.78;34.20;;;20.60;96.10;;;;;;4159594;28;20100;-69
2021/12/09 00:52:53;;;;;;;47.72;33.55;;;20.70;96.00;;;;;;4161774;28;20132;-69
2021/12/09 00:55:01;;;;;;;43.30;31.02;;;20.80;95.80;;;;;;4160926;28;20128;-69
2021/12/09 00:57:11;;;;;;;41.67;29.75;;;20.90;95.60;;;;;;4161558;28;20099;-69
2021/12/09 00:59:17;;;;;;;41.63;29.58;;;20.80;95.40;;;;;;4161298;28;20062;-69
2021/12/09 01:01:26;;;;;;;46.70;27.10;;;20.80;95.50;;;;;;4160505;28;20061;-69
2021/12/09 01:03:35;;;;;;;45.22;27.63;;;20.90;95.40;;;;;;4161158;28;20045;-69
2021/12/09 01:05:45;;;;;;;45.80;28.77;;;21.00;95.00;;;;;;4161322;28;20042;-69
2021/12/09 01:08:19;;;;;;;36.60;26.17;;;21.00;95.10;;;;;;4161339;28;20072;-69
2021/12/09 01:10:26;;;;;;;39.25;28.17;;;21.00;94.90;;;;;;4161135;28;20053;-69
2021/12/09 01:12:31;;;;;;;45.33;27.73;;;21.00;95.00;;;;;;4161020;28;20046;-69
2021/12/09 01:14:38;;;;;;;39.67;26.65;;;21.10;95.20;;;;;;4160965;28;20099;-69
2021/12/09 01:16:45;;;;;;;37.60;26.75;;;21.10;95.10;;;;;;4161153;28;20053;-69
2021/12/09 01:18:54;;;;;;;36.90;25.73;;;21.30;94.90;;;;;;4161181;28;20491;-68
2021/12/09 01:21:01;;;;;;;42.63;26.48;;;21.40;94.60;;;;;;4160697;28;20057;-68
2021/12/09 01:23:10;;;;;;;40.03;27.50;;;21.40;94.80;;;;;;4160946;28;20057;-69
2021/12/09 01:25:18;;;;;;;39.17;26.38;;;21.40;94.90;;;;;;4160433;28;20119;-69
2021/12/09 01:27:28;;;;;;;38.72;25.45;;;21.50;94.80;;;;;;4170440;28;20045;-69
2021/12/09 01:29:38;;;;;;;37.35;25.08;;;21.60;94.40;;;;;;4168807;28;20527;-68
2021/12/09 01:31:59;;;;;;;38.78;24.52;;;21.60;94.40;;;;;;4160592;28;20045;-69
2021/12/09 01:34:05;;;;;;;30.83;23.45;;;21.50;94.40;;;;;;4160271;28;20784;-68
2021/12/09 01:36:16;;;;;;;41.83;24.48;;;21.50;94.70;;;;;;4160906;28;20053;-68
2021/12/09 01:38:23;;;;;;;34.25;22.67;;;21.60;94.50;;;;;;4161141;28;20151;-69
2021/12/09 01:40:31;;;;;;;30.45;20.85;;;21.70;94.10;;;;;;4160498;28;20061;-69
2021/12/09 01:42:39;;;;;;;39.58;22.13;;;21.70;93.80;;;;;;4161286;28;20788;-69
2021/12/09 01:44:45;;;;;;;33.45;21.08;;;21.60;94.00;;;;;;4159662;28;20056;-69
2021/12/09 01:46:52;;;;;;;30.02;20.65;;;21.60;93.90;;;;;;4159414;28;20132;-69
2021/12/09 01:48:57;;;;;;;32.17;21.27;;;21.80;93.90;;;;;;4160606;28;20054;-69
2021/12/09 01:51:04;;;;;;;31.70;21.63;;;21.90;93.70;;;;;;4160590;28;20053;-69
2021/12/09 01:53:11;;;;;;;31.50;21.33;;;22.00;93.60;;;;;;4159606;28;20065;-69
2021/12/09 01:55:21;;;;;;;33.40;22.17;;;22.00;93.00;;;;;;4155526;28;20057;-69
2021/12/09 01:57:33;;;;;;;33.15;20.90;;;22.00;93.30;;;;;;4170417;28;20242;-69
2021/12/09 01:59:50;;;;;;;30.23;20.90;;;22.10;93.60;;;;;;4169452;28;20056;-69
2021/12/09 02:01:56;;;;;;;27.42;19.98;;;22.20;93.20;;;;;;4159600;28;20110;-69
2021/12/09 02:04:06;;;;;;;29.17;21.15;;;22.30;93.10;;;;;;4159650;28;20050;-69
2021/12/09 02:06:17;;;;;;;;;;;22.40;92.90;;;;;;4160805;28;20271;-68
2021/12/09 02:08:26;;;;;;;35.85;20.13;;;22.50;93.00;;;;;;4159650;28;20136;-68
2021/12/09 02:10:35;;;;;;;26.00;18.50;;;22.60;92.80;;;;;;4159121;28;20053;-69
2021/12/09 02:12:48;;;;;;;24.45;18.35;;;22.60;92.50;;;;;;4159517;28;20457;-68
2021/12/09 02:14:59;;;;;;;29.38;17.67;;;22.60;92.30;;;;;;4158164;28;20432;-68
2021/12/09 02:17:11;;;;;;;30.75;18.42;;;22.70;92.40;;;;;;4159623;28;20098;-69
2021/12/09 02:19:21;;;;;;;29.33;17.73;;;22.70;92.30;;;;;;4160199;28;20546;-69
2021/12/09 02:21:29;;;;;;;25.48;16.35;;;22.80;91.90;;;;;;4159451;28;20045;-70
2021/12/09 02:23:39;;;;;;;27.45;17.55;;;22.90;92.10;;;;;;4159520;28;20049;-70
2021/12/09 02:25:45;;;;;;;24.73;17.83;;;23.10;91.70;;;;;;4157660;28;20045;-69
2021/12/09 02:27:56;;;;;;;25.33;18.80;;;23.10;91.70;;;;;;4159547;28;20047;-69
2021/12/09 02:30:04;;;;;;;24.15;18.25;;;23.10;91.50;;;;;;4156997;28;20049;-70
2021/12/09 02:32:13;;;;;;;26.98;17.60;;;23.20;91.40;;;;;;4159340;28;20053;-70
2021/12/09 02:34:38;;;;;;;27.63;16.08;;;23.30;91.40;;;;;;4158390;28;20061;-70
2021/12/09 02:36:50;;;;;;;20.38;14.75;;;23.40;90.80;;;;;;4158910;28;20057;-70
2021/12/09 02:38:56;;;;;;;20.55;15.20;;;23.40;90.90;;;;;;4159952;28;20064;-70
2021/12/09 02:41:08;;;;;;;23.35;15.43;;;23.40;90.70;;;;;;4159113;28;20668;-69
2021/12/09 02:43:18;;;;;;;25.35;16.88;;;23.40;90.80;;;;;;4159783;28;20507;-70
2021/12/09 02:45:35;;;;;;;25.08;16.65;;;23.50;90.90;;;;;;4157052;28;20045;-70
2021/12/09 02:47:41;;;;;;;24.60;16.17;;;23.60;90.90;;;;;;4157830;28;20460;-70
2021/12/09 02:49:47;;;;;;;19.20;14.23;;;23.80;90.80;;;;;;4158454;28;20462;-70
2021/12/09 02:51:59;;;;;;;21.92;14.38;;;23.80;90.50;;;;;;4158864;28;20096;-70
2021/12/09 02:54:06;;;;;;;22.42;14.32;;;23.80;90.40;;;;;;4158783;28;20045;-71
2021/12/09 02:56:12;;;;;;;20.92;13.10;;;24.00;90.10;;;;;;4157322;28;20057;-71
2021/12/09 02:58:18;;;;;;;17.88;12.80;;;24.10;90.00;;;;;;4159776;28;20068;-70
2021/12/09 03:00:52;;;;;;;17.00;13.30;;;24.10;89.80;;;;;;4158272;28;20045;-70
2021/12/09 03:03:03;;;;;;;21.15;14.02;;;24.20;90.00;;;;;;4155616;28;20052;-70
2021/12/09 03:05:10;;;;;;;22.63;12.98;;;24.60;88.70;;;;;;4157139;28;20441;-70
2021/12/09 03:07:31;;;;;;;16.65;12.68;;;24.50;88.00;;;;;;4156680;28;20045;-70
2021/12/09 03:09:49;;;;;;;22.50;13.93;;;24.50;89.20;;;;;;4155495;28;20491;-70
2021/12/09 03:11:55;;;;;;;20.08;13.60;;;24.60;89.20;;;;;;4157362;28;20061;-70
2021/12/09 03:14:20;;;;;;;18.15;12.30;;;24.60;88.60;;;;;;4157976;28;20384;-70
2021/12/09 03:16:33;;;;;;;19.23;11.25;;;24.80;88.10;;;;;;4156325;28;20427;-69
2021/12/09 03:18:50;;;;;;;17.13;7.82;;;24.90;88.40;;;;;;4158856;28;20056;-70
2021/12/09 03:21:00;;;;;;;12.88;6.80;;;24.90;86.10;;;;;;4149334;28;20049;-70
2021/12/09 03:23:19;;;;;;;16.70;6.97;;;25.00;86.20;;;;;;4157004;28;20064;-68
2021/12/09 03:25:37;;;;;;;26.42;7.22;;;25.30;85.60;;;;;;4158524;28;20061;-68
2021/12/09 03:27:48;;;;;;;9.27;6.03;;;25.20;85.70;;;;;;4168931;28;20708;-68
2021/12/09 03:29:54;;;;;;;13.40;5.80;;;25.00;85.60;;;;;;4159407;28;20124;-68
2021/12/09 03:32:09;;;;;;;14.07;6.57;;;25.00;85.80;;;;;;4158902;28;20046;-68
2021/12/09 03:34:20;;;;;;;14.00;7.38;;;25.20;85.20;;;;;;4158860;28;20115;-68
2021/12/09 03:36:28;;;;;;;11.52;6.43;;;25.10;86.40;;;;;;4151866;28;20041;-68
2021/12/09 03:38:32;;;;;;;8.70;7.20;;;25.30;84.70;;;;;;4155005;28;20041;-67
2021/12/09 03:40:50;;;;;;;9.93;6.15;;;25.30;84.60;;;;;;4155668;28;20057;-67
2021/12/09 03:43:02;;;;;;;10.65;5.85;;;25.20;84.00;;;;;;4156991;28;20100;-68
2021/12/09 03:45:09;;;;;;;10.75;4.97;;;25.30;85.20;;;;;;4158047;28;20635;-67
2021/12/09 03:47:25;;;;;;;21.10;4.65;;;25.40;84.20;;;;;;4157161;28;20073;-68
2021/12/09 03:49:44;;;;;;;22.23;4.43;;;25.40;84.30;;;;;;4158295;28;20051;-68
2021/12/09 03:51:59;;;;;;;7.90;3.53;;;25.40;84.10;;;;;;4155665;28;20045;-68
2021/12/09 03:54:23;;;;;;;4.28;3.33;;;25.40;84.40;;;;;;4155952;28;20045;-68
2021/12/09 03:56:47;;;;;;;7.15;3.78;;;25.60;82.80;;;;;;4153993;28;20145;-68
2021/12/09 03:58:54;;;;;;;4.97;3.42;;;25.70;82.40;;;;;;4157113;28;20520;-68
2021/12/09 04:00:59;;;;;;;13.57;3.60;;;25.80;82.60;;;;;;4157379;28;20045;-68
2021/12/09 04:03:06;;;;;;;6.28;4.18;;;25.70;82.30;;;;;;4157064;28;20053;-68
2021/12/09 04:05:14;;;;;;;10.77;4.53;;;25.80;82.60;;;;;;4157035;28;20065;-68
2021/12/09 04:07:23;;;;;;;28.88;5.07;;;25.90;81.90;;;;;;4156125;28;20076;-68
2021/12/09 04:09:35;;;;;;;9.60;3.90;;;25.90;82.40;;;;;;4160197;28;20042;-68
2021/12/09 04:11:48;;;;;;;6.60;3.50;;;25.90;81.60;;;;;;4160409;28;20045;-68
2021/12/09 04:14:00;;;;;;;8.20;4.00;;;26.00;82.40;;;;;;4161073;28;20057;-67
2021/12/09 04:16:08;;;;;;;6.68;3.40;;;26.00;82.30;;;;;;4161412;28;20053;-67
2021/12/09 04:18:15;;;;;;;17.25;4.43;;;26.00;82.20;;;;;;4162082;28;20107;-67
2021/12/09 04:20:21;;;;;;;10.15;4.10;;;26.00;82.00;;;;;;4161993;28;20540;-66
2021/12/09 04:22:28;;;;;;;5.22;3.83;;;26.00;82.60;;;;;;4157098;28;20077;-66
2021/12/09 04:24:35;;;;;;;7.78;3.70;;;26.20;81.90;;;;;;4161506;28;20116;-66
2021/12/09 04:26:46;;;;;;;6.55;3.63;;;26.20;81.80;;;;;;4161278;28;20420;-66
2021/12/09 04:28:55;;;;;;;8.43;4.03;;;26.20;81.90;;;;;;4162303;28;20076;-66
2021/12/09 04:31:00;;;;;;;7.78;3.47;;;26.20;82.00;;;;;;4150082;28;20041;-66
2021/12/09 04:33:09;;;;;;;5.47;3.38;;;26.20;81.90;;;;;;4175659;28;20064;-66
2021/12/09 04:35:22;;;;;;;7.05;3.50;;;26.20;81.90;;;;;;4150563;28;20510;-66
2021/12/09 04:37:31;;;;;;;6.68;3.55;;;26.10;81.70;;;;;;4159791;28;20046;-66
2021/12/09 04:39:40;;;;;;;6.32;3.67;;;26.10;81.70;;;;;;4161287;28;20054;-66
2021/12/09 04:41:50;;;;;;;8.65;3.38;;;26.20;81.80;;;;;;4161312;28;20466;-66
2021/12/09 04:43:59;;;;;;;10.05;3.30;;;26.20;81.70;;;;;;4161372;28;20060;-66
2021/12/09 04:46:08;;;;;;;9.35;3.63;;;26.30;82.00;;;;;;4161252;28;20056;-67
2021/12/09 04:48:15;;;;;;;9.45;3.30;;;26.20;81.60;;;;;;4158943;28;20132;-66
2021/12/09 04:50:20;;;;;;;7.53;3.00;;;26.40;81.50;;;;;;4159296;28;20057;-66
2021/12/09 04:52:27;;;;;;;11.25;3.00;;;26.60;81.60;;;;;;4158589;28;20053;-66
2021/12/09 04:54:42;;;;;;;5.95;2.92;;;26.70;81.80;;;;;;4159295;28;20358;-65
2021/12/09 04:56:49;;;;;;;5.75;2.92;;;26.70;81.60;;;;;;4159709;28;20069;-66
2021/12/09 04:58:58;;;;;;;7.70;3.00;;;26.60;81.90;;;;;;4159192;28;20072;-66
2021/12/09 05:01:10;;;;;;;4.05;2.60;;;26.60;81.70;;;;;;4158515;28;20059;-67
2021/12/09 05:03:34;;;;;;;8.20;2.85;;;26.90;80.70;;;;;;4156955;28;20053;-66
2021/12/09 05:05:46;;;;;;;5.47;2.75;;;26.70;79.90;;;;;;4157446;28;20283;-67
2021/12/09 05:07:58;;;;;;;6.93;3.08;;;26.80;80.10;;;;;;4157983;28;20037;-67
2021/12/09 05:10:09;;;;;;;9.05;3.28;;;27.00;79.80;;;;;;4159066;28;20053;-66
2021/12/09 05:12:16;;;;;;;6.40;3.22;;;26.80;80.30;;;;;;4157617;28;20053;-66
2021/12/09 05:14:26;;;;;;;5.35;2.92;;;26.80;80.20;;;;;;4158640;28;20056;-66
2021/12/09 05:16:39;;;;;;;8.43;3.28;;;26.90;80.20;;;;;;4158723;28;20069;-66
2021/12/09 05:19:02;;;;;;;5.90;3.72;;;27.00;81.40;;;;;;4157321;28;20046;-66
2021/12/09 05:21:12;;;;;;;9.27;3.42;;;27.30;79.00;;;;;;4158758;28;20059;-67
2021/12/09 05:23:19;;;;;;;8.05;3.40;;;27.50;78.60;;;;;;4160644;28;20081;-67
2021/12/09 05:25:42;;;;;;;6.57;3.38;;;27.60;78.70;;;;;;4161124;28;20329;-67
2021/12/09 05:27:55;;;;;;;6.53;2.95;;;27.50;78.40;;;;;;4160101;28;20045;-66
2021/12/09 05:30:12;;;;;;;6.55;3.47;;;27.40;78.90;;;;;;4159786;28;20053;-66
2021/12/09 05:32:22;;;;;;;8.15;2.83;;;27.40;78.80;;;;;;4143903;28;20554;-66
2021/12/09 05:34:46;;;;;;;6.20;3.05;;;27.50;79.00;;;;;;4158294;28;20058;-66
2021/12/09 05:36:55;;;;;;;9.52;2.65;;;27.40;78.80;;;;;;4158311;28;20459;-66
2021/12/09 05:39:05;;;;;;;6.75;2.67;;;27.30;79.20;;;;;;4158405;28;20511;-66
2021/12/09 05:41:14;;;;;;;6.05;2.70;;;27.30;79.20;;;;;;4156664;28;20060;-66
2021/12/09 05:43:25;;;;;;;4.72;2.38;;;27.30;79.20;;;;;;4156752;28;20606;-66
2021/12/09 05:45:30;;;;;;;4.32;2.85;;;27.30;79.00;;;;;;4154855;28;20084;-66
2021/12/09 05:47:43;;;;;;;10.23;2.80;;;27.30;79.20;;;;;;4154891;28;20140;-66
2021/12/09 05:49:53;;;;;;;7.95;2.42;;;27.30;78.80;;;;;;4155405;28;20131;-66
2021/12/09 05:52:04;;;;;;;7.82;2.67;;;27.20;79.10;;;;;;4155383;28;20048;-66
2021/12/09 05:54:09;;;;;;;4.50;2.20;;;27.20;79.50;;;;;;4154873;28;20133;-66
2021/12/09 05:56:18;;;;;;;8.30;2.20;;;27.30;78.80;;;;;;4154874;28;20042;-66
2021/12/09 05:58:32;;;;;;;4.93;2.05;;;27.20;78.90;;;;;;4149439;28;20053;-66
2021/12/09 06:00:38;;;;;;;6.60;2.15;;;27.20;79.20;;;;;;4155699;28;20053;-66
2021/12/09 06:02:47;;;;;;;4.88;2.20;;;27.20;79.50;;;;;;4155486;28;20045;-66
2021/12/09 06:05:00;;;;;;;7.70;2.58;;;27.30;79.40;;;;;;4155645;28;20133;-66
2021/12/09 06:07:09;;;;;;;4.60;2.17;;;27.30;78.90;;;;;;4155779;28;20624;-66
2021/12/09 06:09:19;;;;;;;7.68;2.45;;;27.30;78.80;;;;;;4154502;28;20095;-66
2021/12/09 06:11:46;;;;;;;10.57;2.33;;;27.30;78.60;;;;;;4142076;28;20065;-66
2021/12/09 06:13:57;;;;;;;2.55;1.70;;;27.30;78.50;;;;;;4155484;28;20088;-66
2021/12/09 06:16:08;;;;;;;4.30;2.00;;;27.40;78.80;;;;;;4155605;28;20140;-66
2021/12/09 06:18:13;;;;;;;3.95;1.90;;;27.30;78.90;;;;;;4154836;28;20064;-67
2021/12/09 06:20:19;;;;;;;5.22;2.30;;;27.30;78.80;;;;;;4157376;28;20512;-66
2021/12/09 06:22:28;;;;;;;9.23;2.22;;;27.30;78.80;;;;;;4156266;28;20479;-66
2021/12/09 06:24:52;;;;;;;6.93;1.98;;;27.40;78.50;;;;;;4140822;28;20045;-66
2021/12/09 06:26:59;;;;;;;3.30;1.52;;;27.40;78.70;;;;;;4157027;28;20069;-66
2021/12/09 06:29:08;;;;;;;5.13;2.10;;;27.30;79.10;;;;;;4158189;28;20049;-66
2021/12/09 06:31:23;;;;;;;6.03;2.13;;;27.40;79.30;;;;;;4158161;28;20575;-67
2021/12/09 06:33:48;;;;;;;4.55;2.25;;;27.40;78.80;;;;;;4156944;28;20143;-67
2021/12/09 06:35:59;;;;;;;5.85;2.50;;;27.40;79.00;;;;;;4156267;28;20081;-66
2021/12/09 06:38:08;;;;;;;4.80;2.20;;;27.40;79.20;;;;;;4157892;28;20054;-66
2021/12/09 06:40:22;;;;;;;8.18;1.90;;;27.40;79.10;;;;;;4158034;28;20132;-66
2021/12/09 06:42:30;;;;;;;4.82;2.10;;;27.40;79.50;;;;;;4141550;28;20439;-66
2021/12/09 06:44:36;;;;;;;6.50;2.92;;;27.50;79.30;;;;;;4153029;28;20057;-66
2021/12/09 06:46:50;;;;;;;7.25;2.58;;;27.40;79.50;;;;;;4157371;28;20116;-67
2021/12/09 06:48:57;;;;;;;6.38;2.50;;;27.40;79.70;;;;;;4157639;28;20108;-67
2021/12/09 06:51:04;;;;;;;5.57;2.67;;;27.40;79.50;;;;;;4157532;28;20084;-67
2021/12/09 06:53:11;;;;;;;5.55;2.80;;;27.30;79.70;;;;;;4156426;28;20399;-66
2021/12/09 06:55:20;;;;;;;8.10;3.20;;;27.30;80.00;;;;;;4155766;28;20060;-66
2021/12/09 06:57:27;;;;;;;6.63;3.13;;;27.30;79.80;;;;;;4155845;28;20045;-66
2021/12/09 06:59:32;;;;;;;5.97;2.88;;;27.30;79.30;;;;;;4153431;28;20049;-66
2021/12/09 07:01:41;;;;;;;6.45;2.55;;;27.40;79.20;;;;;;4156433;28;20068;-65
2021/12/09 07:03:47;;;;;;;8.38;2.60;;;27.40;79.20;;;;;;4153576;28;20048;-66
2021/12/09 07:05:56;;;;;;;4.95;2.40;;;27.50;79.40;;;;;;4156446;28;20081;-66
2021/12/09 07:08:03;;;;;;;6.18;2.75;;;27.50;79.30;;;;;;4153300;28;20107;-66
2021/12/09 07:10:11;;;;;;;6.07;2.70;;;27.60;78.90;;;;;;4155768;28;20103;-66
2021/12/09 07:12:18;;;;;;;10.02;2.53;;;27.60;78.70;;;;;;4156000;28;20052;-66
2021/12/09 07:14:27;;;;;;;9.23;2.80;;;27.60;78.80;;;;;;4155948;28;20048;-66
2021/12/09 07:16:40;;;;;;;41.75;4.03;;;27.70;79.10;;;;;;4157100;28;20512;-65
2021/12/09 07:18:51;;;;;;;14.82;2.70;;;27.70;78.70;;;;;;4156594;28;20045;-66
2021/12/09 07:21:00;;;;;;;6.50;2.47;;;27.70;78.90;;;;;;4158527;28;20060;-66
2021/12/09 07:23:05;;;;;;;7.63;2.10;;;27.70;78.80;;;;;;4159013;28;20048;-66
2021/12/09 07:25:14;;;;;;;9.00;2.47;;;27.70;79.00;;;;;;4158661;28;20412;-66
2021/12/09 07:27:22;;;;;;;5.45;2.03;;;27.60;79.20;;;;;;4167169;28;20080;-66
2021/12/09 07:29:28;;;;;;;4.65;2.22;;;27.50;78.90;;;;;;4166777;28;20048;-66
2021/12/09 07:31:33;;;;;;;5.50;2.45;;;27.40;78.90;;;;;;4158716;28;20458;-66
2021/12/09 07:33:40;;;;;;;7.70;2.20;;;27.50;79.20;;;;;;4158368;28;20049;-66
2021/12/09 07:35:50;;;;;;;6.75;2.10;;;27.50;79.50;;;;;;4158375;28;20424;-66
2021/12/09 07:38:16;;;;;;;8.07;2.53;;;27.40;79.10;;;;;;4157890;28;20069;-66
2021/12/09 07:40:31;;;;;;;5.72;2.83;;;27.40;79.10;;;;;;4158445;28;20092;-67
2021/12/09 07:42:42;;;;;;;5.60;2.70;;;27.40;79.40;;;;;;4158851;28;20164;-66
2021/12/09 07:44:49;;;;;;;4.63;2.47;;;27.40;79.60;;;;;;4158683;28;20053;-66
2021/12/09 07:46:59;;;;;;;5.55;2.83;;;27.40;80.20;;;;;;4158842;28;20408;-66
2021/12/09 07:49:06;;;;;;;6.68;2.60;;;27.40;79.60;;;;;;4156663;28;20045;-66
2021/12/09 07:51:12;;;;;;;9.07;2.90;;;27.40;79.70;;;;;;4158322;28;20432;-66
2021/12/09 07:53:23;;;;;;;5.93;2.55;;;27.40;79.80;;;;;;4158884;28;20053;-66
2021/12/09 07:55:33;;;;;;;12.63;2.75;;;27.40;79.60;;;;;;4157340;28;20411;-66
2021/12/09 07:57:46;;;;;;;8.43;2.45;;;27.40;79.40;;;;;;4160985;28;20041;-66
2021/12/09 07:59:54;;;;;;;4.22;2.40;;;27.40;79.30;;;;;;4156107;28;20059;-66
2021/12/09 08:02:00;;;;;;;6.15;2.35;;;27.40;79.40;;;;;;4157282;28;20045;-66
2021/12/09 08:04:05;;;;;;;4.22;2.10;;;27.40;79.40;;;;;;4158361;28;20059;-66
2021/12/09 08:06:22;;;;;;;6.00;2.22;;;27.40;79.40;;;;;;4156531;28;20338;-66
2021/12/09 08:08:31;;;;;;;6.43;2.25;;;27.40;79.60;;;;;;4157167;28;20076;-66
2021/12/09 08:10:38;;;;;;;7.85;2.15;;;27.40;79.50;;;;;;4155165;28;20519;-66
2021/12/09 08:12:46;;;;;;;7.80;2.53;;;27.40;79.80;;;;;;4158308;28;20049;-66
2021/12/09 08:15:03;;;;;;;6.82;2.30;;;27.40;79.90;;;;;;4183080;28;20639;-66
2021/12/09 08:17:44;;;;;;;7.07;2.65;;;27.40;79.90;;;;;;4157958;28;20045;-66
2021/12/09 08:19:40;;;;;;;5.72;2.47;;;27.40;80.00;;;;;;4157136;28;20045;-66
2021/12/09 08:21:48;;;;;;;7.95;2.55;;;27.50;80.00;;;;;;4157098;28;20103;-66
2021/12/09 08:23:53;;;;;;;9.93;2.47;;;27.50;80.00;;;;;;4156633;28;20053;-66
2021/12/09 08:26:02;;;;;;;11.32;2.80;;;27.50;79.80;;;;;;4158150;28;20136;-65
2021/12/09 08:28:09;;;;;;;10.95;5.40;;;27.50;79.80;;;;;;4156673;28;20051;-66
2021/12/09 08:30:18;;;;;;;7.30;3.55;;;27.50;79.50;;;;;;4158189;28;20051;-66
2021/12/09 08:32:45;;;;;;;8.45;4.63;;;27.50;79.40;;;;;;4158002;28;20037;-66
2021/12/09 08:34:50;;;;;;;9.48;4.55;;;27.50;79.20;;;;;;4158019;28;20447;-66
2021/12/09 08:36:55;;;;;;;12.38;3.40;;;27.50;79.20;;;;;;4158539;28;20569;-66
2021/12/09 08:39:00;;;;;;;13.18;2.80;;;27.50;79.40;;;;;;4158446;28;20064;-66
2021/12/09 08:41:08;;;;;;;8.18;3.00;;;27.50;79.50;;;;;;4157916;28;20045;-66
2021/12/09 08:43:14;;;;;;;14.23;3.10;;;27.50;79.40;;;;;;4158324;28;20048;-65
2021/12/09 08:45:20;;;;;;;10.27;2.88;;;27.60;79.60;;;;;;4157414;28;20049;-65
2021/12/09 08:47:27;;;;;;;6.78;2.70;;;27.60;79.70;;;;;;4157922;28;20042;-66
2021/12/09 08:49:34;;;;;;;8.18;2.67;;;27.60;79.50;;;;;;4157789;28;20262;-64
2021/12/09 08:51:44;;;;;;;9.38;2.90;;;27.60;79.40;;;;;;4155159;28;20053;-65
2021/12/09 08:53:52;;;;;;;5.20;2.22;;;27.60;79.80;;;;;;4155323;28;20124;-64
2021/12/09 08:55:58;;;;;;;7.07;2.00;;;27.60;79.40;;;;;;4158782;28;20056;-67
2021/12/09 08:58:04;;;;;;;9.60;2.20;;;27.50;79.10;;;;;;4160912;28;20389;-66
2021/12/09 09:00:14;;;;;;;6.47;2.10;;;27.50;79.30;;;;;;4158155;28;20408;-64
2021/12/09 09:02:20;;;;;;;4.93;2.47;;;27.50;79.40;;;;;;4156261;28;20530;-64
2021/12/09 09:04:25;;;;;;;7.47;3.03;;;27.50;79.50;;;;;;4158059;28;20045;-65
2021/12/09 09:06:33;;;;;;;8.57;2.95;;;27.50;79.70;;;;;;4158203;28;20100;-65
2021/12/09 09:08:40;;;;;;;9.73;4.00;;;27.50;79.60;;;;;;4158194;28;20095;-64
2021/12/09 09:10:45;;;;;;;8.55;3.40;;;27.50;79.70;;;;;;4158013;28;20794;-65
2021/12/09 09:12:53;;;;;;;7.60;3.38;;;27.50;79.70;;;;;;4158562;28;20136;-65
2021/12/09 09:15:02;;;;;;;32.83;4.38;;;27.50;79.70;;;;;;4156192;28;20049;-65
2021/12/09 09:17:11;;;;;;;9.40;2.35;;;27.50;79.70;;;;;;4156868;28;20041;-65
2021/12/09 09:19:20;;;;;;;7.40;2.40;;;27.40;79.60;;;;;;4154753;28;20054;-65
2021/12/09 09:21:34;;;;;;;10.68;2.50;;;27.40;79.50;;;;;;4155598;28;20061;-65
2021/12/09 09:23:45;;;;;;;6.22;2.10;;;27.40;79.50;;;;;;4155605;28;20045;-65
2021/12/09 09:25:52;;;;;;;6.63;1.98;;;27.40;79.60;;;;;;4156653;28;20087;-64
2021/12/09 09:28:02;;;;;;;6.93;2.47;;;27.40;79.60;;;;;;4156032;28;20054;-65
2021/12/09 09:30:13;;;;;;;4.97;1.80;;;27.30;79.40;;;;;;4156841;28;20048;-65
2021/12/09 09:32:21;;;;;;;9.02;2.20;;;27.30;79.50;;;;;;4147603;28;20139;-65
2021/12/09 09:34:28;;;;;;;6.85;1.92;;;27.40;79.70;;;;;;4155644;28;20084;-65
2021/12/09 09:36:44;;;;;;;7.35;2.00;;;27.30;79.60;;;;;;4156102;28;20041;-65
2021/12/09 09:38:59;;;;;;;4.72;1.85;;;27.30;79.60;;;;;;4157071;28;20049;-65
2021/12/09 09:41:13;;;;;;;5.38;1.92;;;27.30;79.70;;;;;;4156362;28;20041;-66
2021/12/09 09:43:29;;;;;;;5.55;1.92;;;27.30;79.80;;;;;;4154509;28;20415;-66
2021/12/09 09:45:40;;;;;;;7.25;1.77;;;27.30;79.70;;;;;;4156406;28;20526;-65
2021/12/09 09:47:45;;;;;;;3.80;1.88;;;27.30;79.90;;;;;;4156539;28;20129;-65
2021/12/09 09:49:52;;;;;;;13.07;3.28;;;27.30;80.00;;;;;;4155385;28;20044;-65
2021/12/09 09:51:58;;;;;;;8.65;4.15;;;27.30;80.10;;;;;;4154375;28;20045;-65
2021/12/09 09:54:09;;;;;;;9.77;5.30;;;27.30;80.30;;;;;;4152207;28;20042;-65
2021/12/09 09:56:19;;;;;;;9.65;2.55;;;27.30;80.30;;;;;;4156483;28;20388;-65
2021/12/09 09:58:25;;;;;;;6.60;2.30;;;27.30;80.00;;;;;;4153091;28;20049;-65
2021/12/09 10:00:37;;;;;;;4.32;2.15;;;27.30;80.20;;;;;;4157666;28;20057;-66
2021/12/09 10:02:53;;;;;;;6.43;2.05;;;27.30;80.30;;;;;;4154370;28;20053;-65
2021/12/09 10:05:22;;;;;;;8.43;2.00;;;27.20;80.30;;;;;;4154885;28;20060;-65
2021/12/09 10:07:34;;;;;;;7.32;1.55;;;27.20;80.10;;;;;;4153053;28;20047;-65
2021/12/09 10:09:44;;;;;;;2.40;1.30;;;27.20;80.00;;;;;;4155991;28;20897;-66
2021/12/09 10:12:07;;;;;;;4.35;1.40;;;27.20;80.30;;;;;;4153621;28;20073;-65
2021/12/09 10:14:19;;;;;;;8.75;1.63;;;27.20;80.30;;;;;;4154278;28;20045;-66
2021/12/09 10:16:32;;;;;;;7.80;1.50;;;27.10;80.10;;;;;;4155829;28;20077;-66
2021/12/09 10:18:44;;;;;;;10.70;1.80;;;27.10;80.20;;;;;;4155265;28;20065;-66
2021/12/09 10:20:53;;;;;;;4.05;1.42;;;27.10;80.10;;;;;;4156249;28;20417;-65
2021/12/09 10:23:02;;;;;;;4.77;1.63;;;27.10;80.00;;;;;;4155713;28;20606;-66
2021/12/09 10:25:21;;;;;;;5.63;1.90;;;27.10;80.10;;;;;;4136294;28;20349;-65
2021/12/09 10:27:36;;;;;;;9.93;1.70;;;27.10;80.80;;;;;;4136566;28;20065;-65
2021/12/09 10:29:47;;;;;;;5.50;1.60;;;27.10;80.30;;;;;;4136002;28;20451;-65
2021/12/09 10:32:02;;;;;;;5.70;2.38;;;27.10;80.30;;;;;;4136924;28;20104;-66
2021/12/09 10:34:32;;;;;;;13.05;3.88;;;27.10;80.20;;;;;;4135386;28;20096;-66
2021/12/09 10:36:48;;;;;;;5.30;2.95;;;27.10;80.30;;;;;;4135296;28;20448;-68
2021/12/09 10:39:20;;;;;;;6.20;2.83;;;27.10;80.30;;;;;;4137708;28;20110;-69
2021/12/09 10:41:34;;;;;;;9.00;4.63;;;27.00;80.40;;;;;;4135397;28;20096;-67
2021/12/09 10:43:49;;;;;;;17.88;8.80;;;27.00;80.30;;;;;;4134797;28;20050;-67
2021/12/09 10:45:55;;;;;;;11.77;4.40;;;27.00;80.30;;;;;;4136064;28;20048;-67
2021/12/09 10:52:48;;;;;;;9.10;2.72;;;27.00;80.30;;;;;;4133059;28;20038;-67
2021/12/09 10:54:55;;;;;;;8.95;4.22;;;27.00;80.30;;;;;;4137597;28;20037;-67
2021/12/09 10:57:27;;;;;;;12.13;6.40;;;27.00;80.30;;;;;;4150173;28;20046;-68
2021/12/09 10:59:35;;;;;;;9.88;5.10;;;27.00;80.50;;;;;;4153962;28;20470;-67
2021/12/09 11:01:44;;;;;;;10.77;5.15;;;27.00;80.60;;;;;;4156234;28;20060;-67
2021/12/09 11:03:58;;;;;;;8.15;3.75;;;27.00;80.60;;;;;;4152349;28;20423;-67
2021/12/09 11:06:06;;;;;;;9.10;3.80;;;27.00;80.70;;;;;;4156082;28;20076;-67
2021/12/09 11:08:26;;;;;;;9.05;3.80;;;27.00;80.70;;;;;;4152481;28;20108;-66
2021/12/09 11:10:31;;;;;;;5.68;3.65;;;27.00;80.70;;;;;;4163089;28;20843;-66
2021/12/09 11:12:38;;;;;;;8.75;3.22;;;27.00;80.90;;;;;;4164696;28;20491;-67
2021/12/09 11:14:57;;;;;;;11.57;3.60;;;27.00;80.90;;;;;;4165969;28;20436;-66
2021/12/09 11:17:08;;;;;;;8.68;3.33;;;27.00;81.00;;;;;;4155395;28;20049;-66
2021/12/09 11:21:38;;;;;;;14.95;4.20;;;26.90;81.00;;;;;;4157638;28;20053;-66